createdAt,value
2018-05-08T00:01:45.854Z,22.73
2018-05-08T00:04:14.543Z,25.00
2018-05-08T00:06:43.016Z,32.17
2018-05-08T00:09:11.814Z,32.73
2018-05-08T00:11:40.200Z,29.47
2018-05-08T00:14:08.939Z,24.23
2018-05-08T00:16:37.575Z,22.90
2018-05-08T00:19:06.227Z,26.57
2018-05-08T00:21:34.893Z,20.00
2018-05-08T00:24:03.631Z,16.77
2018-05-08T00:26:32.325Z,16.90
2018-05-08T00:29:00.956Z,19.70
2018-05-08T00:31:29.689Z,27.00
2018-05-08T00:33:58.379Z,31.67
2018-05-08T00:36:27.057Z,24.80
2018-05-08T00:38:55.808Z,27.23
2018-05-08T00:41:24.669Z,28.33
2018-05-08T00:43:53.845Z,28.27
2018-05-08T00:46:23.168Z,31.10
2018-05-08T00:48:51.860Z,19.60
2018-05-08T00:51:20.442Z,20.63
2018-05-08T00:53:49.263Z,25.87
2018-05-08T00:56:17.915Z,19.27
2018-05-08T00:58:46.379Z,22.90
2018-05-08T01:01:15.130Z,25.40
2018-05-08T01:03:43.613Z,19.17
2018-05-08T01:06:12.305Z,18.23
2018-05-08T01:08:41.042Z,22.43
2018-05-08T01:11:09.623Z,27.70
2018-05-08T01:13:38.309Z,29.63
2018-05-08T01:16:07.001Z,24.50
2018-05-08T01:18:35.772Z,24.90
2018-05-08T01:21:04.459Z,27.37
2018-05-08T01:23:32.984Z,31.70
2018-05-08T01:26:01.686Z,25.00
2018-05-08T01:28:30.360Z,22.90
2018-05-08T01:30:59.132Z,20.60
2018-05-08T01:33:27.701Z,18.60
2018-05-08T01:35:56.473Z,27.50
2018-05-08T01:38:25.109Z,30.63
2018-05-08T01:40:53.672Z,22.47
2018-05-08T01:43:22.122Z,21.53
2018-05-08T01:45:50.828Z,18.63
2018-05-08T01:48:19.601Z,15.10
2018-05-08T01:50:48.967Z,13.03
2018-05-08T01:53:17.617Z,14.40
2018-05-08T01:55:46.250Z,10.07
2018-05-08T01:58:15.613Z,10.27
2018-05-08T02:00:44.308Z,9.50
2018-05-08T02:03:13.007Z,11.23
2018-05-08T02:05:42.051Z,12.30
2018-05-08T02:08:10.841Z,11.33
2018-05-08T02:10:39.337Z,14.40
2018-05-08T02:13:08.032Z,13.77
2018-05-08T02:15:36.608Z,12.03
2018-05-08T02:18:05.281Z,11.80
2018-05-08T02:20:33.713Z,12.40
2018-05-08T02:23:02.595Z,11.53
2018-05-08T02:25:31.928Z,11.00
2018-05-08T02:28:00.567Z,9.77
2018-05-08T02:30:29.213Z,10.47
2018-05-08T02:32:57.983Z,14.17
2018-05-08T02:35:26.670Z,11.93
2018-05-08T02:37:55.305Z,17.90
2018-05-08T02:40:24.096Z,17.40
2018-05-08T02:42:52.527Z,15.63
2018-05-08T02:45:21.686Z,18.50
2018-05-08T02:47:51.184Z,12.57
2018-05-08T02:50:20.426Z,16.80
2018-05-08T02:52:49.665Z,8.20
2018-05-08T02:55:18.315Z,15.27
2018-05-08T02:57:46.959Z,15.30
2018-05-08T03:00:15.702Z,17.13
2018-05-08T03:02:44.337Z,17.40
2018-05-08T03:05:12.916Z,16.07
2018-05-08T03:07:41.437Z,13.10
2018-05-08T03:10:10.268Z,17.87
2018-05-08T03:12:38.815Z,15.13
2018-05-08T03:15:07.540Z,12.43
2018-05-08T03:17:36.371Z,17.10
2018-05-08T03:20:04.962Z,12.67
2018-05-08T03:22:33.500Z,8.00
2018-05-08T03:25:01.977Z,8.37
2018-05-08T03:27:30.716Z,7.90
2018-05-08T03:29:59.550Z,12.90
2018-05-08T03:32:28.378Z,8.60
2018-05-08T03:34:57.166Z,10.37
2018-05-08T03:37:25.711Z,8.50
2018-05-08T03:39:54.150Z,8.10
2018-05-08T03:42:22.785Z,8.50
2018-05-08T03:44:51.562Z,9.33
2018-05-08T03:47:20.181Z,11.30
2018-05-08T03:49:48.995Z,8.77
2018-05-08T03:52:18.255Z,7.70
2018-05-08T03:54:46.962Z,6.53
2018-05-08T03:57:15.648Z,7.23
2018-05-08T03:59:45.097Z,6.57
2018-05-08T04:02:31.582Z,7.20
2018-05-08T04:08:36.280Z,8.53
2018-05-08T04:11:04.873Z,6.93
2018-05-08T04:13:33.357Z,8.47
2018-05-08T04:16:02.002Z,12.83
2018-05-08T04:18:30.576Z,9.70
2018-05-08T04:20:59.369Z,11.77
2018-05-08T04:23:28.054Z,7.63
2018-05-08T04:25:56.733Z,8.43
2018-05-08T04:28:25.422Z,8.60
2018-05-08T04:30:54.155Z,6.73
2018-05-08T04:33:22.897Z,7.33
2018-05-08T04:35:51.551Z,12.50
2018-05-08T04:38:20.985Z,14.90
2018-05-08T04:40:49.673Z,10.43
2018-05-08T04:43:18.110Z,13.47
2018-05-08T04:45:46.892Z,10.50
2018-05-08T04:48:15.331Z,15.23
2018-05-08T04:50:44.018Z,14.33
2018-05-08T04:53:12.672Z,13.77
2018-05-08T04:55:41.294Z,15.47
2018-05-08T04:58:10.162Z,15.83
2018-05-08T05:00:38.842Z,13.87
2018-05-08T05:03:07.733Z,15.20
2018-05-08T05:05:36.369Z,15.83
2018-05-08T05:08:05.203Z,15.47
2018-05-08T05:10:33.700Z,14.63
2018-05-08T05:13:02.475Z,13.07
2018-05-08T05:15:30.889Z,15.43
2018-05-08T05:17:59.396Z,14.87
2018-05-08T05:20:28.181Z,13.10
2018-05-08T05:22:57.017Z,14.43
2018-05-08T05:25:25.540Z,14.67
2018-05-08T05:27:54.095Z,14.60
2018-05-08T05:30:22.724Z,11.60
2018-05-08T05:32:51.129Z,14.07
2018-05-08T05:35:20.054Z,11.97
2018-05-08T05:37:48.678Z,9.00
2018-05-08T05:40:17.316Z,10.63
2018-05-08T05:42:46.099Z,11.37
2018-05-08T05:45:14.786Z,14.07
2018-05-08T05:47:43.479Z,14.33
2018-05-08T05:50:12.060Z,15.07
2018-05-08T05:52:40.691Z,11.50
2018-05-08T05:55:09.471Z,14.60
2018-05-08T05:57:37.963Z,12.00
2018-05-08T06:00:06.686Z,11.03
2018-05-08T06:02:35.365Z,10.60
2018-05-08T06:05:04.544Z,13.53
2018-05-08T06:07:34.489Z,13.47
2018-05-08T06:10:03.158Z,15.77
2018-05-08T06:12:31.776Z,18.00
2018-05-08T06:15:00.329Z,13.77
2018-05-08T06:17:28.976Z,18.20
2018-05-08T06:19:59.319Z,22.20
2018-05-08T06:22:27.908Z,19.23
2018-05-08T06:24:56.647Z,15.73
2018-05-08T06:27:30.978Z,18.67
2018-05-08T06:29:59.610Z,21.63
2018-05-08T06:32:28.316Z,21.73
2018-05-08T06:34:56.948Z,25.57
2018-05-08T06:37:25.392Z,21.17
2018-05-08T06:39:54.096Z,21.00
2018-05-08T06:42:23.530Z,25.60
2018-05-08T06:44:51.960Z,22.40
2018-05-08T06:47:20.432Z,29.70
2018-05-08T06:49:49.688Z,28.30
2018-05-08T06:52:18.382Z,29.00
2018-05-08T06:54:46.951Z,22.57
2018-05-08T06:57:15.521Z,21.93
2018-05-08T06:59:44.861Z,25.20
2018-05-08T07:02:13.592Z,23.10
2018-05-08T07:04:42.936Z,24.67
2018-05-08T07:07:11.731Z,21.73
2018-05-08T07:09:40.562Z,27.10
2018-05-08T07:12:09.232Z,24.03
2018-05-08T07:14:37.659Z,27.10
2018-05-08T07:17:06.294Z,32.90
2018-05-08T07:19:34.930Z,40.77
2018-05-08T07:22:03.389Z,37.27
2018-05-08T07:24:32.051Z,40.53
2018-05-08T07:27:00.746Z,37.30
2018-05-08T07:29:29.333Z,31.70
2018-05-08T07:31:57.937Z,39.10
2018-05-08T07:34:26.690Z,42.73
2018-05-08T07:36:55.529Z,38.03
2018-05-08T07:39:24.951Z,29.87
2018-05-08T07:41:54.204Z,37.70
2018-05-08T07:44:22.874Z,39.33
2018-05-08T07:46:51.642Z,38.37
2018-05-08T07:49:20.378Z,51.57
2018-05-08T07:51:49.044Z,34.57
2018-05-08T07:54:17.739Z,37.70
2018-05-08T07:56:46.239Z,37.70
2018-05-08T08:01:49.398Z,35.23
2018-05-08T08:04:17.806Z,36.20
2018-05-08T08:06:46.620Z,36.57
2018-05-08T08:09:15.170Z,31.73
2018-05-08T08:11:43.890Z,32.07
2018-05-08T08:14:12.724Z,31.20
2018-05-08T08:16:41.415Z,33.40
2018-05-08T08:19:09.931Z,30.13
2018-05-08T08:21:39.613Z,34.17
2018-05-08T08:24:08.164Z,34.03
2018-05-08T08:26:37.460Z,35.37
2018-05-08T08:29:05.947Z,36.00
2018-05-08T08:31:34.655Z,34.17
2018-05-08T08:34:03.255Z,34.00
2018-05-08T08:36:31.872Z,36.87
2018-05-08T08:39:00.627Z,34.60
2018-05-08T08:41:29.939Z,35.10
2018-05-08T08:43:59.505Z,35.97
2018-05-08T08:46:28.394Z,37.90
2018-05-08T08:48:57.085Z,34.03
2018-05-08T08:51:26.554Z,34.87
2018-05-08T08:53:55.222Z,36.60
2018-05-08T08:56:23.942Z,36.00
2018-05-08T08:58:52.343Z,33.63
2018-05-08T09:01:21.037Z,36.17
2018-05-08T09:03:49.762Z,36.67
2018-05-08T09:06:18.165Z,35.40
2018-05-08T09:08:46.693Z,34.63
2018-05-08T09:11:15.928Z,36.40
2018-05-08T09:13:44.550Z,39.63
2018-05-08T09:16:12.924Z,37.90
2018-05-08T09:18:41.634Z,35.73
2018-05-08T09:21:10.380Z,39.60
2018-05-08T09:23:39.067Z,36.87
2018-05-08T09:26:07.736Z,35.37
2018-05-08T09:28:36.428Z,35.03
2018-05-08T09:31:05.115Z,40.07
2018-05-08T09:33:33.783Z,34.90
2018-05-08T09:36:02.615Z,34.07
2018-05-08T09:38:31.439Z,31.50
2018-05-08T09:41:00.099Z,37.17
2018-05-08T09:43:28.640Z,35.20
2018-05-08T09:45:58.602Z,34.07
2018-05-08T09:48:27.046Z,31.87
2018-05-08T09:50:55.609Z,31.00
2018-05-08T09:53:24.323Z,30.87
2018-05-08T09:55:53.162Z,32.03
2018-05-08T09:58:21.880Z,31.67
2018-05-08T10:00:50.470Z,31.13
2018-05-08T10:03:19.825Z,32.97
2018-05-08T10:05:48.996Z,33.30
2018-05-08T10:08:17.471Z,30.53
2018-05-08T10:10:46.181Z,30.00
2018-05-08T10:13:14.904Z,30.57
2018-05-08T10:15:43.464Z,28.13
2018-05-08T10:18:13.159Z,28.77
2018-05-08T10:20:41.782Z,26.53
2018-05-08T10:23:10.624Z,27.10
2018-05-08T10:25:39.966Z,29.73
2018-05-08T10:28:09.424Z,26.07
2018-05-08T10:30:38.062Z,29.63
2018-05-08T10:33:06.659Z,29.87
2018-05-08T10:35:35.179Z,27.23
2018-05-08T10:38:03.865Z,30.20
2018-05-08T10:40:32.450Z,28.10
2018-05-08T10:43:01.134Z,26.93
2018-05-08T10:45:29.920Z,30.33
2018-05-08T10:47:58.608Z,27.87
2018-05-08T10:50:27.245Z,23.50
2018-05-08T10:52:55.772Z,25.27
2018-05-08T10:55:24.316Z,23.10
2018-05-08T10:57:54.672Z,22.83
2018-05-08T11:00:23.501Z,22.20
2018-05-08T11:02:52.188Z,23.53
2018-05-08T11:05:20.885Z,22.20
2018-05-08T11:07:49.604Z,22.00
2018-05-08T11:10:18.633Z,22.90
2018-05-08T11:12:47.334Z,23.07
2018-05-08T11:15:15.964Z,22.23
2018-05-08T11:17:44.445Z,23.03
2018-05-08T11:20:13.085Z,24.53
2018-05-08T11:22:41.665Z,23.83
2018-05-08T11:25:10.371Z,23.50
2018-05-08T11:27:39.917Z,24.43
2018-05-08T11:30:08.728Z,24.97
2018-05-08T11:32:37.390Z,26.20
2018-05-08T11:35:06.956Z,23.77
2018-05-08T11:37:35.790Z,24.40
2018-05-08T11:40:04.526Z,23.17
2018-05-08T11:42:33.061Z,24.80
2018-05-08T11:45:01.896Z,23.83
2018-05-08T11:47:30.703Z,24.03
2018-05-08T11:49:59.396Z,23.90
2018-05-08T11:52:28.206Z,23.83
2018-05-08T11:54:56.682Z,21.87
2018-05-08T11:57:25.464Z,23.43
2018-05-08T11:59:54.287Z,22.07
2018-05-08T12:02:23.127Z,20.83
2018-05-08T12:04:51.922Z,21.50
2018-05-08T12:07:21.049Z,22.93
2018-05-08T12:09:49.673Z,23.13
2018-05-08T12:12:18.448Z,22.77
2018-05-08T12:14:47.052Z,23.73
2018-05-08T12:17:15.591Z,21.60
2018-05-08T12:19:44.224Z,22.27
2018-05-08T12:22:12.868Z,23.07
2018-05-08T12:24:41.445Z,24.43
2018-05-08T12:27:10.909Z,22.30
2018-05-08T12:29:39.694Z,18.70
2018-05-08T12:32:08.379Z,19.97
2018-05-08T12:34:37.016Z,17.63
2018-05-08T12:37:06.081Z,17.40
2018-05-08T12:39:34.676Z,17.13
2018-05-08T12:42:03.386Z,21.20
2018-05-08T12:44:31.906Z,23.90
2018-05-08T12:47:01.515Z,24.93
2018-05-08T12:49:30.309Z,23.73
2018-05-08T12:51:58.843Z,24.67
2018-05-08T12:54:27.638Z,23.13
2018-05-08T12:56:56.459Z,23.87
2018-05-08T12:59:26.376Z,24.73
2018-05-08T13:01:55.109Z,23.43
2018-05-08T13:04:23.789Z,23.80
2018-05-08T13:06:53.300Z,22.87
2018-05-08T13:09:21.994Z,22.10
2018-05-08T13:11:50.796Z,22.33
2018-05-08T13:14:20.027Z,23.20
2018-05-08T13:16:48.887Z,23.17
2018-05-08T13:19:17.712Z,23.30
2018-05-08T13:21:46.280Z,23.63
2018-05-08T13:24:15.562Z,22.57
2018-05-08T13:26:44.194Z,23.23
2018-05-08T13:29:13.384Z,22.97
2018-05-08T13:31:41.974Z,22.60
2018-05-08T13:36:45.146Z,24.97
2018-05-08T13:39:14.521Z,25.27
2018-05-08T13:41:43.201Z,25.37
2018-05-08T13:44:11.794Z,25.93
2018-05-08T13:46:41.004Z,26.77
2018-05-08T13:49:09.650Z,27.43
2018-05-08T13:51:38.433Z,28.50
2018-05-08T13:54:07.188Z,27.00
2018-05-08T13:56:35.897Z,27.80
2018-05-08T13:59:04.490Z,27.83
2018-05-08T14:01:33.080Z,27.73
2018-05-08T14:04:01.700Z,28.50
2018-05-08T14:06:30.388Z,28.43
2018-05-08T14:08:58.928Z,31.77
2018-05-08T14:11:27.715Z,30.90
2018-05-08T14:13:56.687Z,30.37
2018-05-08T14:16:26.560Z,29.97
2018-05-08T14:18:55.081Z,32.27
2018-05-08T14:21:23.633Z,32.83
2018-05-08T14:23:52.112Z,33.33
2018-05-08T14:26:20.905Z,33.90
2018-05-08T14:28:49.738Z,33.90
2018-05-08T14:31:18.149Z,33.47
2018-05-08T14:33:46.665Z,34.57
2018-05-08T14:36:15.657Z,32.93
2018-05-08T14:38:45.206Z,33.20
2018-05-08T14:41:13.856Z,33.20
2018-05-08T14:43:43.160Z,34.37
2018-05-08T14:46:11.809Z,34.67
2018-05-08T14:48:40.396Z,34.53
2018-05-08T14:51:09.232Z,35.50
2018-05-08T14:53:37.775Z,34.93
2018-05-08T14:56:06.582Z,35.43
2018-05-08T14:58:35.091Z,38.50
2018-05-08T15:01:03.780Z,37.33
2018-05-08T15:03:32.878Z,35.00
2018-05-08T15:06:01.435Z,34.80
2018-05-08T15:08:30.131Z,36.10
2018-05-08T15:10:58.905Z,35.87
2018-05-08T15:13:27.459Z,34.77
2018-05-08T15:15:56.040Z,36.47
2018-05-08T15:18:24.794Z,38.40
2018-05-08T15:20:53.941Z,35.93
2018-05-08T15:23:22.680Z,35.93
2018-05-08T15:25:51.393Z,36.27
2018-05-08T15:28:19.951Z,37.50
2018-05-08T15:30:48.635Z,35.07
2018-05-08T15:33:17.411Z,36.17
2018-05-08T15:35:46.092Z,35.40
2018-05-08T15:38:14.475Z,37.27
2018-05-08T15:40:43.181Z,36.67
2018-05-08T15:43:11.814Z,36.57
2018-05-08T15:45:40.447Z,37.47
2018-05-08T15:48:09.348Z,37.43
2018-05-08T15:50:38.815Z,39.70
2018-05-08T15:53:07.436Z,37.47
2018-05-08T15:55:35.965Z,37.23
2018-05-08T15:58:04.717Z,36.57
2018-05-08T16:00:33.439Z,35.73
2018-05-08T16:03:02.219Z,34.77
2018-05-08T16:05:30.921Z,34.03
2018-05-08T16:07:59.346Z,34.10
2018-05-08T16:10:27.738Z,33.70
2018-05-08T16:12:56.565Z,34.07
2018-05-08T16:15:25.261Z,33.90
2018-05-08T16:17:53.892Z,35.20
2018-05-08T16:20:22.576Z,32.10
2018-05-08T16:22:51.162Z,31.67
2018-05-08T16:25:19.751Z,32.77
2018-05-08T16:27:49.226Z,30.13
2018-05-08T16:30:18.028Z,31.50
2018-05-08T16:32:47.276Z,30.90
2018-05-08T16:35:15.708Z,32.27
2018-05-08T16:37:44.495Z,30.63
2018-05-08T16:40:12.980Z,30.90
2018-05-08T16:42:41.689Z,30.87
2018-05-08T16:45:11.145Z,30.33
2018-05-08T16:47:39.711Z,30.77
2018-05-08T16:50:08.431Z,31.17
2018-05-08T16:52:37.414Z,28.87
2018-05-08T16:55:05.840Z,29.73
2018-05-08T16:57:34.370Z,29.67
2018-05-08T17:00:03.006Z,29.73
2018-05-08T17:02:31.544Z,29.83
2018-05-08T17:05:00.132Z,27.93
2018-05-08T17:07:28.826Z,26.93
2018-05-08T17:09:57.397Z,27.37
2018-05-08T17:12:25.792Z,27.23
2018-05-08T17:14:54.424Z,27.33
2018-05-08T17:17:23.121Z,26.63
2018-05-08T17:19:51.863Z,26.43
2018-05-08T17:22:20.430Z,25.43
2018-05-08T17:24:48.882Z,25.67
2018-05-08T17:27:18.390Z,25.17
2018-05-08T17:29:46.825Z,23.70
2018-05-08T17:32:15.661Z,24.27
2018-05-08T17:34:44.492Z,22.80
2018-05-08T17:37:13.128Z,23.33
2018-05-08T17:39:41.687Z,22.07
2018-05-08T17:42:10.893Z,22.67
2018-05-08T17:44:39.477Z,22.83
2018-05-08T17:47:07.922Z,22.17
2018-05-08T17:49:36.621Z,22.47
2018-05-08T17:52:06.125Z,21.20
2018-05-08T17:54:34.805Z,22.30
2018-05-08T17:57:03.461Z,20.27
2018-05-08T17:59:32.232Z,19.53
2018-05-08T18:02:00.925Z,20.33
2018-05-08T18:04:29.556Z,18.97
2018-05-08T18:06:58.217Z,19.63
2018-05-08T18:09:26.882Z,19.63
2018-05-08T18:11:55.465Z,19.73
2018-05-08T18:14:24.093Z,19.37
2018-05-08T18:16:52.872Z,19.77
2018-05-08T18:19:21.681Z,19.33
2018-05-08T18:21:50.248Z,17.77
2018-05-08T18:24:18.977Z,16.93
2018-05-08T18:26:47.664Z,17.43
2018-05-08T18:29:16.297Z,17.10
2018-05-08T18:31:45.108Z,16.87
2018-05-08T18:34:13.795Z,16.13
2018-05-08T18:36:42.241Z,17.10
2018-05-08T18:39:10.841Z,16.83
2018-05-08T18:41:39.478Z,17.47
2018-05-08T18:44:08.250Z,17.03
2018-05-08T18:46:37.092Z,16.53
2018-05-08T18:49:05.909Z,16.93
2018-05-08T18:51:34.612Z,17.50
2018-05-08T18:54:03.919Z,17.93
2018-05-08T18:56:33.106Z,17.33
2018-05-08T18:59:01.807Z,17.43
2018-05-08T19:01:30.236Z,17.83
2018-05-08T19:03:58.768Z,18.47
2018-05-08T19:06:27.506Z,17.93
2018-05-08T19:08:56.100Z,17.87
2018-05-08T19:11:30.214Z,17.77
2018-05-08T19:13:58.814Z,18.63
2018-05-08T19:16:27.504Z,18.40
2018-05-08T19:19:01.690Z,17.60
2018-05-08T19:21:30.375Z,17.97
2018-05-08T19:24:04.477Z,18.07
2018-05-08T19:26:33.451Z,18.30
2018-05-08T19:29:07.779Z,18.83
2018-05-08T19:31:36.973Z,18.20
2018-05-08T19:34:05.601Z,18.87
2018-05-08T19:39:35.756Z,18.97
2018-05-08T19:42:05.074Z,19.27
2018-05-08T19:44:33.709Z,19.07
2018-05-08T19:47:02.544Z,18.87
2018-05-08T19:49:31.224Z,19.97
2018-05-08T19:51:59.881Z,19.77
2018-05-08T19:54:28.645Z,18.77
2018-05-08T19:56:57.281Z,19.77
2018-05-08T19:59:25.780Z,20.43
2018-05-08T20:01:55.267Z,19.47
2018-05-08T20:04:25.109Z,19.50
2018-05-08T20:06:53.790Z,21.03
2018-05-08T20:09:22.622Z,19.70
2018-05-08T20:11:51.126Z,20.67
2018-05-08T20:14:19.790Z,20.67
2018-05-08T20:16:48.535Z,20.83
2018-05-08T20:19:17.030Z,20.17
2018-05-08T20:21:45.683Z,20.50
2018-05-08T20:24:14.292Z,20.43
2018-05-08T20:26:42.729Z,21.63
2018-05-08T20:29:11.396Z,22.90
2018-05-08T20:31:40.073Z,23.77
2018-05-08T20:34:10.019Z,22.60
2018-05-08T20:36:38.795Z,23.63
2018-05-08T20:39:07.569Z,22.57
2018-05-08T20:41:37.444Z,23.30
2018-05-08T20:44:06.125Z,22.63
2018-05-08T20:46:35.245Z,23.33
2018-05-08T20:49:04.899Z,22.83
2018-05-08T20:51:33.408Z,23.83
2018-05-08T20:54:02.195Z,22.87
2018-05-08T20:56:30.881Z,24.03
2018-05-08T20:58:59.456Z,24.67
2018-05-08T21:01:28.149Z,25.07
2018-05-08T21:03:56.590Z,24.77
2018-05-08T21:06:25.618Z,26.03
2018-05-08T21:08:54.798Z,26.27
2018-05-08T21:11:23.306Z,26.63
2018-05-08T21:13:52.067Z,27.33
2018-05-08T21:16:20.485Z,27.93
2018-05-08T21:18:49.851Z,28.33
2018-05-08T21:21:18.420Z,27.57
2018-05-08T21:23:47.204Z,28.33
2018-05-08T21:26:16.042Z,28.70
2018-05-08T21:28:50.138Z,27.73
2018-05-08T21:31:18.670Z,29.90
2018-05-08T21:33:47.722Z,30.07
2018-05-08T21:36:16.404Z,30.77
2018-05-08T21:38:45.820Z,29.53
2018-05-08T21:41:15.289Z,30.30
2018-05-08T21:43:43.873Z,31.40
2018-05-08T21:46:13.172Z,29.17
2018-05-08T21:48:42.010Z,29.57
2018-05-08T21:51:10.887Z,30.17
2018-05-08T21:53:39.524Z,29.40
2018-05-08T21:56:08.019Z,28.73
2018-05-08T21:58:36.756Z,29.07
2018-05-08T22:01:05.451Z,28.97
2018-05-08T22:03:34.118Z,29.77
2018-05-08T22:06:02.852Z,29.17
2018-05-08T22:08:32.290Z,28.60
2018-05-08T22:11:01.354Z,28.30
2018-05-08T22:13:29.997Z,28.33
2018-05-08T22:15:58.647Z,28.83
2018-05-08T22:18:27.263Z,28.33
2018-05-08T22:20:56.044Z,28.87
2018-05-08T22:23:24.679Z,29.40
2018-05-08T22:25:54.105Z,28.53
2018-05-08T22:28:22.592Z,28.57
2018-05-08T22:30:51.226Z,28.63
2018-05-08T22:33:19.810Z,28.67
2018-05-08T22:35:48.501Z,28.47
2018-05-08T22:38:16.932Z,28.73
2018-05-08T22:40:45.574Z,27.90
2018-05-08T22:43:14.797Z,29.17
2018-05-08T22:45:43.444Z,27.93
2018-05-08T22:48:12.217Z,27.17
2018-05-08T22:50:40.904Z,24.20
2018-05-08T22:53:09.532Z,24.03
2018-05-08T22:55:38.183Z,22.47
2018-05-08T22:58:06.866Z,22.87
2018-05-08T23:00:35.590Z,23.10
2018-05-08T23:03:04.352Z,22.70
2018-05-08T23:05:33.794Z,22.40
2018-05-08T23:08:02.386Z,21.83
2018-05-08T23:10:30.986Z,22.57
2018-05-08T23:12:59.621Z,21.63
2018-05-08T23:15:28.829Z,22.23
2018-05-08T23:17:57.220Z,22.73
2018-05-08T23:20:25.909Z,23.03
2018-05-08T23:22:54.624Z,23.47
2018-05-08T23:25:23.967Z,24.07
2018-05-08T23:27:52.611Z,22.50
2018-05-08T23:30:21.042Z,23.97
2018-05-08T23:32:50.230Z,23.00
2018-05-08T23:35:18.878Z,23.43
2018-05-08T23:37:47.682Z,23.57
2018-05-08T23:40:16.365Z,24.80
2018-05-08T23:42:45.003Z,22.00
2018-05-08T23:45:13.786Z,21.97
2018-05-08T23:47:42.761Z,19.97
2018-05-08T23:50:11.450Z,18.27
2018-05-08T23:52:40.170Z,18.30
2018-05-08T23:55:08.814Z,16.77
2018-05-08T23:57:37.555Z,17.30
